Flight Track Log - Related Links

Times and Time Zones

All times are in EDT time to prevent confusion due to time zone crossing. See the PVL5700 flight status page for this flight to view local times or setup timezone preferences in your user account.

Time Position Orientation Groundspeed Altitude Reporting Facility
EDT Latitude Longitude Course Direction KTS MPH feet Rate Location/Type
Sat 01:38:00 PM 54.5778 -65.7104 110° East  Level FlightAware Approximate
Sat 01:39:00 PM 54.5542 -65.6023 111° Southeast  Level FlightAware Approximate
Sat 01:40:00 PM 54.5293 -65.4951 112° Southeast  Level FlightAware Approximate
Sat 01:41:00 PM 54.5042 -65.3882 112° Southeast  Level FlightAware Approximate
Sat 01:42:00 PM 54.4787 -65.2816 113° Southeast  Level FlightAware Approximate
Sat 01:43:00 PM 54.4555 -65.1736 108° East  Level FlightAware Approximate
Sat 01:44:00 PM 54.4350 -65.0640 108° East  Level FlightAware Approximate
Sat 01:45:00 PM 54.4141 -64.9547 110° East  Level FlightAware Approximate
Sat 01:46:00 PM 54.3906 -64.8469 110° East  Level FlightAware Approximate
Sat 01:47:00 PM 54.3670 -64.7393 111° Southeast  Level FlightAware Approximate
Sat 01:48:00 PM 54.3433 -64.6318 111° Southeast  Level FlightAware Approximate
Sat 01:49:00 PM 54.3195 -64.5245 111° Southeast  Level FlightAware Approximate
Sat 01:50:00 PM 54.2957 -64.4172 111° Southeast  Level FlightAware Approximate
Sat 01:51:00 PM 54.2717 -64.3101 111° Southeast  Level FlightAware Approximate
Sat 01:52:00 PM 54.2477 -64.2031 111° Southeast  Level FlightAware Approximate
Sat 01:53:00 PM 54.2235 -64.0962 111° Southeast  Level FlightAware Approximate
Sat 01:54:00 PM 54.1992 -63.9895 111° Southeast  Level FlightAware Approximate
Sat 01:54:06 PM 54.2833 -64.3667 112° Southeast 310 357 21,000  Level Montreal Center
Sat 01:55:00 PM 54.1749 -63.8829 111° Southeast  Level FlightAware Approximate
Sat 01:55:06 PM 54.2667 -64.2167 101° East 300 345 21,000  Level Montreal Center
Sat 01:56:00 PM 54.1505 -63.7764 111° Southeast  Level FlightAware Approximate
Sat 01:56:06 PM 54.2333 -64.1167 120° Southeast 300 345 21,000  Level Montreal Center
Sat 01:57:00 PM 54.1259 -63.6700 111° Southeast  Level FlightAware Approximate
Sat 01:57:06 PM 54.2167 -63.9667 101° East 300 345 21,000  Level Montreal Center
Sat 01:58:00 PM 54.1013 -63.5638 112° Southeast  Level FlightAware Approximate
Sat 01:58:06 PM 54.1833 -63.8333 113° Southeast 300 345 21,000  Level Montreal Center
Sat 01:59:00 PM 54.0766 -63.4576 112° Southeast  Level FlightAware Approximate
Sat 01:59:06 PM 54.1500 -63.7000 113° Southeast 300 345 21,000  Level Montreal Center
Sat 02:00:06 PM 54.1167 -63.5667 113° Southeast 300 345 21,000  Level Montreal Center
Sat 02:01:06 PM 54.0833 -63.4500 116° Southeast 300 345 21,000  Level Montreal Center
Sat 02:02:06 PM 54.0500 -63.3000 111° Southeast 300 345 21,000  Level Montreal Center
Sat 02:03:06 PM 54.0333 -63.1833 104° East 290 334 21,000  Level Montreal Center
Sat 02:04:06 PM 54.0000 -63.0500 113° Southeast 290 334 21,000  Level Montreal Center
Sat 02:05:06 PM 53.9500 -62.9167 122° Southeast 290 334 21,000  Level Montreal Center
Sat 02:06:06 PM 53.9167 -62.8167 119° Southeast 290 334 21,000  Level Montreal Center
Sat 02:07:06 PM 53.8833 -62.6833 113° Southeast 290 334 21,000  Level Montreal Center
Sat 02:08:06 PM 53.8500 -62.5500 113° Southeast 290 334 21,000  Level Montreal Center
Sat 02:10:00 PM 53.8034 -62.3494 111° Southeast  Level FlightAware Approximate
Sat 02:17:00 PM 53.6282 -61.6141 114° Southeast  Level FlightAware Approximate
Sat 02:18:00 PM 53.6008 -61.5111 114° Southeast  Level FlightAware Approximate
Sat 02:19:00 PM 53.5733 -61.4082 114° Southeast  Level FlightAware Approximate
Sat 02:20:00 PM 53.5471 -61.3045 113° Southeast  Level FlightAware Approximate
Sat 02:21:00 PM 53.5211 -61.2006 113° Southeast  Level FlightAware Approximate
Sat 02:22:00 PM 53.4951 -61.0969 113° Southeast  Level FlightAware Approximate
Sat 02:23:00 PM 53.4684 -60.9937 114° Southeast  Level FlightAware Approximate
Sat 02:24:00 PM 53.4410 -60.8910 114° Southeast  Level FlightAware Approximate
Sat 02:25:00 PM 53.4138 -60.7884 113° Southeast  Level FlightAware Approximate
Sat 02:26:00 PM 53.3879 -60.6848 113° Southeast  Level FlightAware Approximate
Sat 02:27:00 PM 53.3620 -60.5813 113° Southeast  Level FlightAware Approximate
Sat 02:28:00 PM 53.3345 -60.4790 116° Southeast  Level FlightAware Approximate
Sat 02:29:00 PM 53.3167 -60.4167 116° Southeast  Level FlightAware Approximate
Sat 02:30:00 PM 53.3192 -60.4258 116° Southeast  Level Estimated
Sat 02:31:00 PM 53.3167 -60.4167 116° Southeast  Level FlightAware Approximate
Sat 02:32:00 PM 53.3192 -60.4258 116° Southeast  Level Estimated
Sat 02:33:00 PM 53.3167 -60.4167 116° Southeast  Level FlightAware Approximate
Sat 02:34:00 PM 53.3192 -60.4258 116° Southeast  Level Estimated
Sat 02:35:00 PM 53.3167 -60.4167 116° Southeast  Level FlightAware Approximate
Sat 02:36:00 PM 53.3192 -60.4258 116° Southeast  Level Estimated
Sat 02:37:00 PM 53.3167 -60.4167 116° Southeast  Level FlightAware Approximate
Sat 02:38:00 PM 53.3192 -60.4258 116° Southeast  Level Estimated
Sat 02:39:00 PM 53.3167 -60.4167 116° Southeast  Level FlightAware Approximate
Sat 02:40:00 PM 53.3192 -60.4258 116° Southeast  Level Estimated
Sat 02:41:00 PM 53.3167 -60.4167 116° Southeast  Level FlightAware Approximate
Sat 02:42:00 PM 53.3192 -60.4258 116° Southeast  Level Estimated
Sat 02:43:00 PM 53.3167 -60.4167 116° Southeast  Level FlightAware Approximate
Sat 02:44:00 PM 53.3192 -60.4258 116° Southeast  Level Estimated

Login

Don't have an account? Register now (free) for customized features, flight alerts, and more!